createdAt,value
2017-12-31T00:00:21.139Z,91.65
2017-12-31T00:01:21.123Z,92.03
2017-12-31T00:02:21.124Z,91.55
2017-12-31T00:03:21.089Z,91.84
2017-12-31T00:04:21.060Z,91.46
2017-12-31T00:05:21.045Z,91.94
2017-12-31T00:06:21.031Z,92.69
2017-12-31T00:07:21.009Z,92.69
2017-12-31T00:08:20.987Z,92.84
2017-12-31T00:09:20.976Z,92.65
2017-12-31T00:10:20.948Z,93.03
2017-12-31T00:11:20.933Z,93.03
2017-12-31T00:12:20.918Z,93.22
2017-12-31T00:13:20.899Z,93.03
2017-12-31T00:14:20.878Z,93.98
2017-12-31T00:15:20.859Z,93.65
2017-12-31T00:16:20.841Z,94.13
2017-12-31T00:17:20.828Z,94.08
2017-12-31T00:18:20.810Z,94.74
2017-12-31T00:19:20.788Z,94.46
2017-12-31T00:20:20.769Z,94.56
2017-12-31T00:21:20.748Z,94.56
2017-12-31T00:22:20.732Z,95.12
2017-12-31T00:23:20.711Z,94.93
2017-12-31T00:24:20.694Z,95.60
2017-12-31T00:25:20.679Z,95.41
2017-12-31T00:26:20.656Z,95.32
2017-12-31T00:27:20.637Z,95.70
2017-12-31T00:28:20.624Z,95.79
2017-12-31T00:29:20.616Z,95.22
2017-12-31T00:30:20.596Z,96.55
2017-12-31T00:31:20.577Z,95.98
2017-12-31T00:32:20.548Z,95.89
2017-12-31T00:33:20.529Z,96.08
2017-12-31T00:34:20.510Z,96.27
2017-12-31T00:35:20.498Z,96.36
2017-12-31T00:36:20.474Z,96.17
2017-12-31T00:37:20.466Z,96.55
2017-12-31T00:38:20.438Z,96.55
2017-12-31T00:39:20.417Z,96.84
2017-12-31T00:40:20.418Z,97.03
2017-12-31T00:41:20.388Z,97.13
2017-12-31T00:42:20.375Z,96.94
2017-12-31T00:43:20.348Z,96.55
2017-12-31T00:44:20.328Z,96.94
2017-12-31T00:45:20.308Z,97.41
2017-12-31T00:46:20.292Z,97.41
2017-12-31T00:47:20.276Z,97.41
2017-12-31T00:48:20.254Z,97.41
2017-12-31T00:49:20.245Z,97.41
2017-12-31T00:50:20.222Z,97.99
2017-12-31T00:51:20.199Z,97.60
2017-12-31T00:52:20.181Z,97.60
2017-12-31T00:53:20.168Z,97.41
2017-12-31T00:54:20.142Z,97.31
2017-12-31T00:55:20.125Z,97.99
2017-12-31T00:56:20.111Z,98.36
2017-12-31T00:57:20.097Z,98.36
2017-12-31T00:58:20.072Z,98.55
2017-12-31T00:59:20.057Z,98.46
2017-12-31T01:00:20.041Z,98.36
2017-12-31T01:01:20.016Z,98.94
2017-12-31T01:02:20.008Z,98.55
2017-12-31T01:03:19.979Z,98.65
2017-12-31T01:04:19.970Z,99.13
2017-12-31T01:05:19.946Z,99.22
2017-12-31T01:06:19.928Z,98.84
2017-12-31T01:07:19.904Z,99.03
2017-12-31T01:08:19.886Z,99.13
2017-12-31T01:09:19.878Z,99.32
2017-12-31T01:10:19.847Z,99.79
2017-12-31T01:11:19.837Z,99.69
2017-12-31T01:12:19.820Z,99.69
2017-12-31T01:13:19.795Z,99.79
2017-12-31T01:14:19.777Z,99.69
2017-12-31T01:15:19.761Z,99.99
2017-12-31T01:16:19.742Z,99.99
2017-12-31T01:17:19.722Z,99.99
2017-12-31T01:18:19.706Z,99.99
2017-12-31T01:19:19.688Z,99.99
2017-12-31T01:20:19.667Z,99.98
2017-12-31T01:21:19.650Z,99.99
2017-12-31T01:22:19.628Z,99.99
2017-12-31T01:23:19.613Z,99.99
2017-12-31T01:24:19.594Z,99.99
2017-12-31T01:25:19.572Z,99.99
2017-12-31T01:26:19.558Z,99.99
2017-12-31T01:27:19.539Z,99.99
2017-12-31T01:28:19.522Z,99.99
2017-12-31T01:29:19.498Z,99.99
2017-12-31T01:30:19.485Z,99.99
2017-12-31T01:31:19.460Z,99.99
2017-12-31T01:32:19.444Z,99.99
2017-12-31T01:33:19.430Z,99.99
2017-12-31T01:34:19.406Z,99.99
2017-12-31T01:35:19.387Z,99.99
2017-12-31T01:36:19.380Z,99.99
2017-12-31T01:37:19.349Z,99.99
2017-12-31T01:38:19.334Z,99.99
2017-12-31T01:39:19.323Z,99.99
2017-12-31T01:40:19.298Z,99.99
2017-12-31T01:41:19.278Z,99.99
2017-12-31T01:42:19.258Z,99.99
2017-12-31T01:43:19.251Z,99.99
2017-12-31T01:44:19.232Z,99.99
2017-12-31T01:45:19.211Z,98.36
2017-12-31T01:46:19.182Z,98.08
2017-12-31T01:47:19.167Z,98.55
2017-12-31T01:48:19.152Z,97.79
2017-12-31T01:49:19.130Z,97.70
2017-12-31T01:50:19.114Z,96.08
2017-12-31T01:51:19.098Z,96.27
2017-12-31T01:52:19.081Z,95.70
2017-12-31T01:53:19.060Z,95.98
2017-12-31T01:54:19.047Z,94.84
2017-12-31T01:55:19.022Z,94.74
2017-12-31T01:56:19.000Z,95.32
2017-12-31T01:57:18.988Z,95.41
2017-12-31T01:58:18.964Z,95.12
2017-12-31T01:59:18.949Z,95.03
2017-12-31T02:00:18.930Z,95.79
2017-12-31T02:01:18.914Z,95.70
2017-12-31T02:02:18.889Z,95.89
2017-12-31T02:03:18.872Z,95.70
2017-12-31T02:04:18.852Z,95.60
2017-12-31T02:05:18.836Z,95.32
2017-12-31T02:06:18.821Z,95.70
2017-12-31T02:07:18.798Z,95.98
2017-12-31T02:08:18.783Z,96.27
2017-12-31T02:09:18.758Z,96.75
2017-12-31T02:10:18.743Z,96.55
2017-12-31T02:11:18.722Z,97.22
2017-12-31T02:12:18.700Z,96.94
2017-12-31T02:13:18.684Z,97.79
2017-12-31T02:14:18.669Z,97.89
2017-12-31T02:15:18.645Z,98.74
2017-12-31T02:16:18.633Z,98.55
2017-12-31T02:17:18.609Z,99.22
2017-12-31T02:18:18.598Z,99.03
2017-12-31T02:19:18.574Z,99.69
2017-12-31T02:20:18.566Z,99.41
2017-12-31T02:21:18.535Z,99.98
2017-12-31T02:22:18.524Z,99.99
2017-12-31T02:23:18.500Z,99.99
2017-12-31T02:24:18.479Z,99.99
2017-12-31T02:25:18.468Z,99.99
2017-12-31T02:26:18.444Z,99.99
2017-12-31T02:27:18.428Z,99.99
2017-12-31T02:28:18.408Z,99.99
2017-12-31T02:29:18.401Z,99.99
2017-12-31T02:30:18.369Z,99.99
2017-12-31T02:31:18.350Z,99.99
2017-12-31T02:32:18.334Z,99.99
2017-12-31T02:33:18.313Z,99.99
2017-12-31T02:34:18.297Z,99.99
2017-12-31T02:35:18.273Z,99.99
2017-12-31T02:36:18.263Z,99.99
2017-12-31T02:37:18.254Z,99.99
2017-12-31T02:38:18.220Z,99.99
2017-12-31T02:39:18.199Z,99.99
2017-12-31T02:40:18.189Z,99.99
2017-12-31T02:41:18.161Z,99.99
2017-12-31T02:42:18.143Z,99.99
2017-12-31T02:43:18.131Z,99.99
2017-12-31T02:44:18.108Z,99.99
2017-12-31T02:45:18.088Z,99.99
2017-12-31T02:46:18.068Z,99.99
2017-12-31T02:47:18.052Z,99.99
2017-12-31T02:48:18.050Z,99.99
2017-12-31T02:49:18.023Z,99.99
2017-12-31T02:50:18.001Z,99.99
2017-12-31T02:51:17.981Z,99.99
2017-12-31T02:52:17.960Z,99.99
2017-12-31T02:53:17.946Z,99.99
2017-12-31T02:54:17.924Z,99.99
2017-12-31T02:55:17.901Z,99.99
2017-12-31T02:56:17.884Z,99.99
2017-12-31T02:57:17.870Z,99.99
2017-12-31T02:58:17.846Z,99.99
2017-12-31T02:59:17.830Z,99.99
2017-12-31T03:00:17.808Z,99.99
2017-12-31T03:01:17.789Z,99.99
2017-12-31T03:02:17.775Z,99.99
2017-12-31T03:03:17.751Z,99.99
2017-12-31T03:04:17.734Z,99.99
2017-12-31T03:05:17.721Z,99.99
2017-12-31T03:06:17.697Z,99.99
2017-12-31T03:07:17.680Z,99.99
2017-12-31T03:08:17.661Z,99.99
2017-12-31T03:09:17.641Z,99.99
2017-12-31T03:10:17.620Z,99.99
2017-12-31T03:11:17.610Z,99.99
2017-12-31T03:12:17.589Z,99.99
2017-12-31T03:13:17.571Z,99.99
2017-12-31T03:14:17.550Z,99.99
2017-12-31T03:15:17.536Z,99.99
2017-12-31T03:16:17.508Z,99.99
2017-12-31T03:17:17.492Z,99.99
2017-12-31T03:18:17.513Z,99.99
2017-12-31T03:19:17.456Z,99.99
2017-12-31T03:20:17.435Z,99.99
2017-12-31T03:21:17.422Z,99.99
2017-12-31T03:22:17.400Z,99.99
2017-12-31T03:23:17.378Z,99.99
2017-12-31T03:24:17.363Z,99.99
2017-12-31T03:25:17.343Z,99.99
2017-12-31T03:26:17.324Z,99.99
2017-12-31T03:27:17.308Z,99.99
2017-12-31T03:28:17.289Z,99.99
2017-12-31T03:29:17.268Z,99.99
2017-12-31T03:30:17.253Z,99.99
2017-12-31T03:31:17.231Z,99.99
2017-12-31T03:32:17.214Z,99.99
2017-12-31T03:33:17.194Z,99.99
2017-12-31T03:34:17.180Z,99.99
2017-12-31T03:35:17.158Z,99.99
2017-12-31T03:36:17.139Z,99.99
2017-12-31T03:37:17.125Z,99.99
2017-12-31T03:38:17.104Z,99.99
2017-12-31T03:39:17.092Z,99.99
2017-12-31T03:40:17.068Z,99.99
2017-12-31T03:41:17.050Z,99.99
2017-12-31T03:42:17.028Z,99.99
2017-12-31T03:43:17.009Z,99.99
2017-12-31T03:44:16.991Z,99.99
2017-12-31T03:45:16.976Z,99.99
2017-12-31T03:46:16.959Z,99.99
2017-12-31T03:47:16.935Z,99.99
2017-12-31T03:48:16.918Z,99.99
2017-12-31T03:49:16.900Z,99.99
2017-12-31T03:50:16.877Z,99.99
2017-12-31T03:51:16.860Z,99.99
2017-12-31T03:52:16.853Z,99.99
2017-12-31T03:53:16.823Z,99.99
2017-12-31T03:54:16.813Z,99.99
2017-12-31T03:55:16.789Z,99.99
2017-12-31T03:56:16.772Z,99.99
2017-12-31T03:57:16.756Z,99.99
2017-12-31T03:58:16.731Z,99.99
2017-12-31T03:59:16.723Z,99.99
2017-12-31T04:00:16.701Z,99.99
2017-12-31T04:01:16.691Z,99.99
2017-12-31T04:02:16.662Z,99.99
2017-12-31T04:03:16.646Z,99.99
2017-12-31T04:04:16.624Z,99.99
2017-12-31T04:05:16.607Z,99.99
2017-12-31T04:06:16.588Z,99.99
2017-12-31T04:07:16.572Z,99.99
2017-12-31T04:08:16.547Z,99.99
2017-12-31T04:09:16.534Z,99.99
2017-12-31T04:10:16.518Z,99.99
2017-12-31T04:11:16.495Z,99.99
2017-12-31T04:12:16.479Z,99.99
2017-12-31T04:13:16.461Z,99.99
2017-12-31T04:14:16.438Z,99.99
2017-12-31T04:15:16.422Z,99.99
2017-12-31T04:16:16.408Z,99.99
2017-12-31T04:17:16.390Z,99.99
2017-12-31T04:18:16.372Z,99.99
2017-12-31T04:19:16.351Z,99.99
2017-12-31T04:20:16.332Z,99.99
2017-12-31T04:21:16.312Z,99.99
2017-12-31T04:22:16.289Z,99.99
2017-12-31T04:23:16.271Z,99.99
2017-12-31T04:24:16.254Z,99.99
2017-12-31T04:25:16.233Z,99.99
2017-12-31T04:26:16.219Z,99.99
2017-12-31T04:27:16.208Z,99.99
2017-12-31T04:28:16.186Z,99.99
2017-12-31T04:29:16.164Z,99.99
2017-12-31T04:30:16.144Z,99.99
2017-12-31T04:31:16.128Z,99.99
2017-12-31T04:32:16.105Z,99.99
2017-12-31T04:33:16.089Z,99.99
2017-12-31T04:34:16.067Z,99.99
2017-12-31T04:35:16.049Z,99.99
2017-12-31T04:36:16.032Z,99.99
2017-12-31T04:37:16.019Z,99.99
2017-12-31T04:38:16.001Z,99.99
2017-12-31T04:39:15.978Z,99.99
2017-12-31T04:40:15.959Z,99.99
2017-12-31T04:41:15.938Z,99.99
2017-12-31T04:42:15.922Z,99.99
2017-12-31T04:43:15.909Z,99.99
2017-12-31T04:44:15.882Z,99.99
2017-12-31T04:45:15.864Z,99.99
2017-12-31T04:46:15.848Z,99.99
2017-12-31T04:47:15.831Z,99.99
2017-12-31T04:48:15.809Z,99.99
2017-12-31T04:49:15.789Z,99.99
2017-12-31T04:50:15.772Z,99.99
2017-12-31T04:51:15.763Z,99.99
2017-12-31T04:52:15.736Z,99.99
2017-12-31T04:53:15.717Z,99.99
2017-12-31T04:54:15.700Z,99.99
2017-12-31T04:55:15.683Z,99.99
2017-12-31T04:56:15.662Z,99.99
2017-12-31T04:57:15.645Z,99.99
2017-12-31T04:58:15.625Z,99.99
2017-12-31T04:59:15.658Z,99.99
2017-12-31T05:00:15.589Z,99.99
2017-12-31T05:01:15.570Z,99.99
2017-12-31T05:02:15.552Z,99.99
2017-12-31T05:03:15.535Z,99.99
2017-12-31T05:04:15.520Z,99.99
2017-12-31T05:05:15.495Z,99.99
2017-12-31T05:06:15.479Z,99.99
2017-12-31T05:07:15.460Z,99.99
2017-12-31T05:08:15.442Z,99.99
2017-12-31T05:09:15.420Z,99.99
2017-12-31T05:10:15.402Z,99.99
2017-12-31T05:11:15.385Z,99.99
2017-12-31T05:12:15.369Z,99.99
2017-12-31T05:13:15.348Z,99.99
2017-12-31T05:14:15.332Z,99.99
2017-12-31T05:15:15.310Z,99.99
2017-12-31T05:16:15.291Z,99.99
2017-12-31T05:17:15.275Z,99.99
2017-12-31T05:18:15.256Z,99.99
2017-12-31T05:19:15.237Z,99.99
2017-12-31T05:20:15.217Z,99.99
2017-12-31T05:21:15.201Z,99.99
2017-12-31T05:22:15.179Z,99.99
2017-12-31T05:23:15.160Z,99.99
2017-12-31T05:24:15.140Z,99.99
2017-12-31T05:25:15.122Z,99.99
2017-12-31T05:26:15.107Z,99.99
2017-12-31T05:27:15.085Z,99.99
2017-12-31T05:28:15.068Z,99.99
2017-12-31T05:29:15.049Z,99.99
2017-12-31T05:30:15.033Z,99.99
2017-12-31T05:31:15.012Z,99.99
2017-12-31T05:32:14.992Z,99.99
2017-12-31T05:33:14.974Z,99.99
2017-12-31T05:34:14.953Z,99.99
2017-12-31T05:35:14.939Z,99.99
2017-12-31T05:36:14.916Z,99.99
2017-12-31T05:37:14.900Z,99.99
2017-12-31T05:38:14.878Z,99.99
2017-12-31T05:39:14.873Z,99.99
2017-12-31T05:40:14.845Z,99.99
2017-12-31T05:41:14.823Z,99.99
2017-12-31T05:42:14.807Z,99.99
2017-12-31T05:43:14.785Z,99.99
2017-12-31T05:44:14.772Z,99.99
2017-12-31T05:45:14.749Z,99.99
2017-12-31T05:46:14.728Z,99.99
2017-12-31T05:47:14.715Z,99.99
2017-12-31T05:48:14.695Z,99.99
2017-12-31T05:49:14.670Z,99.99
2017-12-31T05:50:14.659Z,99.99
2017-12-31T05:51:14.640Z,99.99
2017-12-31T05:52:14.616Z,99.99
2017-12-31T05:53:14.609Z,99.99
2017-12-31T05:54:14.578Z,99.99
2017-12-31T05:55:14.563Z,99.99
2017-12-31T05:56:14.544Z,99.99
2017-12-31T05:57:14.527Z,99.99
2017-12-31T05:58:14.502Z,99.99
2017-12-31T05:59:14.491Z,99.99
2017-12-31T06:00:14.471Z,99.99
2017-12-31T06:01:14.455Z,99.99
2017-12-31T06:02:14.433Z,99.99
2017-12-31T06:03:14.409Z,99.99
2017-12-31T06:04:14.398Z,99.99
2017-12-31T06:05:14.374Z,99.99
2017-12-31T06:06:14.358Z,99.99
2017-12-31T06:07:14.337Z,99.99
2017-12-31T06:08:14.337Z,99.99
2017-12-31T06:09:14.305Z,99.99
2017-12-31T06:10:14.282Z,99.99
2017-12-31T06:11:14.262Z,99.99
2017-12-31T06:12:14.249Z,99.99
2017-12-31T06:13:14.228Z,99.99
2017-12-31T06:14:14.205Z,99.99
2017-12-31T06:15:14.189Z,99.99
2017-12-31T06:16:14.169Z,99.99
2017-12-31T06:17:14.150Z,99.99
2017-12-31T06:18:14.135Z,99.99
2017-12-31T06:19:14.116Z,99.99
2017-12-31T06:20:14.097Z,99.99
2017-12-31T06:21:14.080Z,99.99
2017-12-31T06:22:14.066Z,99.99
2017-12-31T06:23:14.041Z,99.99
2017-12-31T06:24:14.023Z,99.99
2017-12-31T06:25:14.004Z,99.99
2017-12-31T06:26:13.981Z,99.99
2017-12-31T06:27:13.969Z,99.99
2017-12-31T06:28:13.949Z,99.99
2017-12-31T06:29:13.931Z,99.99
2017-12-31T06:30:13.909Z,99.99
2017-12-31T06:31:13.889Z,99.99
2017-12-31T06:32:13.870Z,99.99
2017-12-31T06:33:13.852Z,99.99
2017-12-31T06:34:13.834Z,99.99
2017-12-31T06:35:13.816Z,99.99
2017-12-31T06:36:13.799Z,99.99
2017-12-31T06:37:13.779Z,99.99
2017-12-31T06:38:13.759Z,99.99
2017-12-31T06:39:13.745Z,99.99
2017-12-31T06:40:13.729Z,99.99
2017-12-31T06:41:13.706Z,99.99
2017-12-31T06:42:13.688Z,99.99
2017-12-31T06:43:13.669Z,99.99
2017-12-31T06:44:13.648Z,99.99
2017-12-31T06:45:13.629Z,99.99
2017-12-31T06:46:13.613Z,99.99
2017-12-31T06:47:13.600Z,99.99
2017-12-31T06:48:13.580Z,99.99
2017-12-31T06:49:13.559Z,99.99
2017-12-31T06:50:13.538Z,99.99
2017-12-31T06:51:13.522Z,99.99
2017-12-31T06:52:13.501Z,99.99
2017-12-31T06:53:13.487Z,99.99
2017-12-31T06:54:13.470Z,99.99
2017-12-31T06:55:13.448Z,99.99
2017-12-31T06:56:13.428Z,99.99
2017-12-31T06:57:13.413Z,99.99
2017-12-31T06:58:13.392Z,99.99
2017-12-31T06:59:13.371Z,99.99
2017-12-31T07:00:13.356Z,99.99
2017-12-31T07:01:13.339Z,99.99
2017-12-31T07:02:13.318Z,99.99
2017-12-31T07:03:13.319Z,99.99
2017-12-31T07:04:13.286Z,99.99
2017-12-31T07:05:13.262Z,99.99
2017-12-31T07:06:13.247Z,99.99
2017-12-31T07:07:13.229Z,99.99
2017-12-31T07:08:13.208Z,99.99
2017-12-31T07:09:13.188Z,99.99
2017-12-31T07:10:13.179Z,99.99
2017-12-31T07:11:13.155Z,99.99
2017-12-31T07:12:13.140Z,99.99
2017-12-31T07:13:13.117Z,99.99
2017-12-31T07:14:13.096Z,99.99
2017-12-31T07:15:13.086Z,99.99
2017-12-31T07:16:13.064Z,99.99
2017-12-31T07:17:13.042Z,99.99
2017-12-31T07:18:13.026Z,99.99
2017-12-31T07:19:13.010Z,99.99
2017-12-31T07:20:12.989Z,99.99
2017-12-31T07:21:12.970Z,99.99
2017-12-31T07:22:12.949Z,99.99
2017-12-31T07:23:12.935Z,99.99
2017-12-31T07:24:12.916Z,99.99
2017-12-31T07:25:12.899Z,99.99
2017-12-31T07:26:12.879Z,99.99
2017-12-31T07:27:12.860Z,99.99
2017-12-31T07:28:12.842Z,99.99
2017-12-31T07:29:12.828Z,99.99
2017-12-31T07:30:12.804Z,99.99
2017-12-31T07:31:12.791Z,99.99
2017-12-31T07:32:12.771Z,99.99
2017-12-31T07:33:12.751Z,99.99
2017-12-31T07:34:12.733Z,99.99
2017-12-31T07:35:12.711Z,99.99
2017-12-31T07:36:12.697Z,99.99
2017-12-31T07:37:12.681Z,99.99
2017-12-31T07:38:12.662Z,99.99
2017-12-31T07:39:12.642Z,99.99
2017-12-31T07:40:12.619Z,99.99
2017-12-31T07:41:12.605Z,99.99
2017-12-31T07:42:12.585Z,99.99
2017-12-31T07:43:12.566Z,99.99
2017-12-31T07:44:12.551Z,99.99
2017-12-31T07:45:12.527Z,99.99
2017-12-31T07:46:12.513Z,99.99
2017-12-31T07:47:12.501Z,99.99
2017-12-31T07:48:12.508Z,99.99
2017-12-31T07:49:12.455Z,99.99
2017-12-31T07:50:12.439Z,99.99
2017-12-31T07:51:12.420Z,99.99
2017-12-31T07:52:12.399Z,99.99
2017-12-31T07:53:12.383Z,99.99
2017-12-31T07:54:12.369Z,99.99
2017-12-31T07:55:12.344Z,99.99
2017-12-31T07:56:12.337Z,99.99
2017-12-31T07:57:12.309Z,99.99
2017-12-31T07:58:12.293Z,99.99
2017-12-31T07:59:12.272Z,99.99
2017-12-31T08:00:12.261Z,99.99
2017-12-31T08:01:12.238Z,99.99
2017-12-31T08:02:12.217Z,99.99
2017-12-31T08:03:12.203Z,99.99
2017-12-31T08:04:12.179Z,99.99
2017-12-31T08:05:12.165Z,99.99
2017-12-31T08:06:12.147Z,99.99
2017-12-31T08:07:12.126Z,99.99
2017-12-31T08:08:12.105Z,99.99
2017-12-31T08:09:12.092Z,99.99
2017-12-31T08:10:12.068Z,99.99
2017-12-31T08:11:12.052Z,99.99
2017-12-31T08:12:12.036Z,99.99
2017-12-31T08:13:12.014Z,99.99
2017-12-31T08:14:11.997Z,99.99
2017-12-31T08:15:11.977Z,99.99
2017-12-31T08:16:11.960Z,99.99
2017-12-31T08:17:11.945Z,99.99
2017-12-31T08:18:11.929Z,99.99
2017-12-31T08:19:11.922Z,99.99
2017-12-31T08:20:11.887Z,99.99
2017-12-31T08:21:11.869Z,99.99
2017-12-31T08:22:11.851Z,99.99
2017-12-31T08:23:11.832Z,99.99
2017-12-31T08:24:11.814Z,99.99
2017-12-31T08:25:11.794Z,99.99
2017-12-31T08:26:11.778Z,99.99
2017-12-31T08:27:11.765Z,99.99
2017-12-31T08:28:11.748Z,99.99
2017-12-31T08:29:11.724Z,99.99
2017-12-31T08:30:11.705Z,99.99
2017-12-31T08:31:11.688Z,99.99
2017-12-31T08:32:11.687Z,99.99
2017-12-31T08:33:11.656Z,99.99
2017-12-31T08:34:11.648Z,99.99
2017-12-31T08:35:11.633Z,99.99
2017-12-31T08:36:11.606Z,99.99
2017-12-31T08:37:11.580Z,99.99
2017-12-31T08:38:11.558Z,99.99
2017-12-31T08:39:11.539Z,99.99
2017-12-31T08:40:11.519Z,99.99
2017-12-31T08:41:11.506Z,99.99
2017-12-31T08:42:11.489Z,99.99
2017-12-31T08:43:11.465Z,99.99
2017-12-31T08:44:11.448Z,99.99
2017-12-31T08:45:11.430Z,99.99
2017-12-31T08:46:11.416Z,99.99
2017-12-31T08:47:11.393Z,99.99
2017-12-31T08:48:11.372Z,99.99
2017-12-31T08:49:11.360Z,99.99
2017-12-31T08:50:11.341Z,99.99
2017-12-31T08:51:11.320Z,99.99
2017-12-31T08:52:11.302Z,99.99
2017-12-31T08:53:11.280Z,99.99
2017-12-31T08:54:11.262Z,99.99
2017-12-31T08:55:11.245Z,99.99
2017-12-31T08:56:11.237Z,99.99
2017-12-31T08:57:11.209Z,99.99
2017-12-31T08:58:11.189Z,99.99
2017-12-31T08:59:11.174Z,99.99
2017-12-31T09:00:11.167Z,99.99
2017-12-31T09:01:11.133Z,99.99
2017-12-31T09:02:11.121Z,99.99
2017-12-31T09:03:11.098Z,99.99
2017-12-31T09:04:11.080Z,99.99
2017-12-31T09:05:11.064Z,99.99
2017-12-31T09:06:11.048Z,99.99
2017-12-31T09:07:11.029Z,99.99
2017-12-31T09:08:11.007Z,99.99
2017-12-31T09:09:10.990Z,99.99
2017-12-31T09:10:10.968Z,99.99
2017-12-31T09:11:10.952Z,99.99
2017-12-31T09:12:10.937Z,99.99
2017-12-31T09:13:10.917Z,99.99
2017-12-31T09:14:10.896Z,99.99
2017-12-31T09:15:10.880Z,99.99
2017-12-31T09:16:10.866Z,99.99
2017-12-31T09:17:10.843Z,99.99
2017-12-31T09:18:10.824Z,99.99
2017-12-31T09:19:10.812Z,99.99
2017-12-31T09:20:10.788Z,99.99
2017-12-31T09:21:10.771Z,99.99
2017-12-31T09:22:10.755Z,99.99
2017-12-31T09:23:10.735Z,99.99
2017-12-31T09:24:10.720Z,99.99
2017-12-31T09:25:10.698Z,99.99
2017-12-31T09:26:10.685Z,99.99
2017-12-31T09:27:10.664Z,99.99
2017-12-31T09:28:10.648Z,99.99
2017-12-31T09:29:10.631Z,99.99
2017-12-31T09:30:10.606Z,99.99
2017-12-31T09:31:10.589Z,99.99
2017-12-31T09:32:10.573Z,99.99
2017-12-31T09:33:10.551Z,99.99
2017-12-31T09:34:10.535Z,99.99
2017-12-31T09:35:10.520Z,99.99
2017-12-31T09:36:10.510Z,99.99
2017-12-31T09:37:10.490Z,99.99
2017-12-31T09:38:10.464Z,99.99
2017-12-31T09:39:10.451Z,99.99
2017-12-31T09:40:10.428Z,99.37
2017-12-31T09:41:10.411Z,99.95
2017-12-31T09:42:10.392Z,99.46
2017-12-31T09:43:10.369Z,99.08
2017-12-31T09:44:10.363Z,99.27
2017-12-31T09:45:10.351Z,99.75
2017-12-31T09:46:10.321Z,99.66
2017-12-31T09:47:10.301Z,99.99
2017-12-31T09:48:10.279Z,99.75
2017-12-31T09:49:10.267Z,99.75
2017-12-31T09:50:10.247Z,99.99
2017-12-31T09:51:10.234Z,99.75
2017-12-31T09:52:10.212Z,99.66
2017-12-31T09:53:10.198Z,99.85
2017-12-31T09:54:10.173Z,99.99
2017-12-31T09:55:10.158Z,99.99
2017-12-31T09:56:10.139Z,99.99
2017-12-31T09:57:10.119Z,99.99
2017-12-31T09:58:10.098Z,99.99
2017-12-31T09:59:10.083Z,99.75
2017-12-31T10:00:10.066Z,99.99
2017-12-31T10:01:10.046Z,99.95
2017-12-31T10:02:10.032Z,99.99
2017-12-31T10:03:10.010Z,99.99
2017-12-31T10:04:09.992Z,99.99
2017-12-31T10:05:09.973Z,99.99
2017-12-31T10:06:09.956Z,99.99
2017-12-31T10:07:09.941Z,99.95
2017-12-31T10:08:09.917Z,99.46
2017-12-31T10:09:09.913Z,99.75
2017-12-31T10:10:09.882Z,98.22
2017-12-31T10:11:09.872Z,97.75
2017-12-31T10:12:09.845Z,97.94
2017-12-31T10:13:09.828Z,97.56
2017-12-31T10:14:09.808Z,97.94
2017-12-31T10:15:09.797Z,97.08
2017-12-31T10:16:09.774Z,98.13
2017-12-31T10:17:09.766Z,97.08
2017-12-31T10:18:09.737Z,98.13
2017-12-31T10:19:09.723Z,97.85
2017-12-31T10:20:09.705Z,97.94
2017-12-31T10:21:09.686Z,98.99
2017-12-31T10:22:09.669Z,98.32
2017-12-31T10:23:09.646Z,97.75
2017-12-31T10:24:09.629Z,97.37
2017-12-31T10:25:09.611Z,98.03
2017-12-31T10:26:09.600Z,98.13
2017-12-31T10:27:09.594Z,97.46
2017-12-31T10:28:09.566Z,97.46
2017-12-31T10:29:09.540Z,97.17
2017-12-31T10:30:09.530Z,96.56
2017-12-31T10:31:09.508Z,96.08
2017-12-31T10:32:09.491Z,96.94
2017-12-31T10:33:09.479Z,96.51
2017-12-31T10:34:09.460Z,96.51
2017-12-31T10:35:09.434Z,96.61
2017-12-31T10:36:09.419Z,96.56
2017-12-31T10:37:09.411Z,95.79
2017-12-31T10:38:09.379Z,96.37
2017-12-31T10:39:09.364Z,96.08
2017-12-31T10:40:09.348Z,95.89
2017-12-31T10:41:09.325Z,95.32
2017-12-31T10:42:09.311Z,95.70
2017-12-31T10:43:09.294Z,95.70
2017-12-31T10:44:09.315Z,95.70
2017-12-31T10:45:09.253Z,95.70
2017-12-31T10:46:09.236Z,96.08
2017-12-31T10:47:09.229Z,96.08
2017-12-31T10:48:09.200Z,95.32
2017-12-31T10:49:09.181Z,95.51
2017-12-31T10:50:09.165Z,95.51
2017-12-31T10:51:09.150Z,95.32
2017-12-31T10:52:09.133Z,96.08
2017-12-31T10:53:09.113Z,96.17
2017-12-31T10:54:09.092Z,95.32
2017-12-31T10:55:09.081Z,94.74
2017-12-31T10:56:09.062Z,94.93
2017-12-31T10:57:09.038Z,94.84
2017-12-31T10:58:09.018Z,94.60
2017-12-31T10:59:09.006Z,94.70
2017-12-31T11:00:08.989Z,94.79
2017-12-31T11:01:08.966Z,94.79
2017-12-31T11:02:08.950Z,95.56
2017-12-31T11:03:08.935Z,95.36
2017-12-31T11:04:08.923Z,94.89
2017-12-31T11:05:08.898Z,94.22
2017-12-31T11:06:08.879Z,93.93
2017-12-31T11:07:08.866Z,93.93
2017-12-31T11:08:08.844Z,94.98
2017-12-31T11:09:08.866Z,94.70
2017-12-31T11:10:08.808Z,94.22
2017-12-31T11:11:08.790Z,94.03
2017-12-31T11:12:08.777Z,93.55
2017-12-31T11:13:08.753Z,94.22
2017-12-31T11:14:08.751Z,94.51
2017-12-31T11:15:08.720Z,93.93
2017-12-31T11:16:08.701Z,93.74
2017-12-31T11:17:08.684Z,93.74
2017-12-31T11:18:08.666Z,93.26
2017-12-31T11:19:08.660Z,93.55
2017-12-31T11:20:08.629Z,94.03
2017-12-31T11:21:08.615Z,93.55
2017-12-31T11:22:08.599Z,93.36
2017-12-31T11:23:08.588Z,93.93
2017-12-31T11:24:08.567Z,94.12
2017-12-31T11:25:08.540Z,93.26
2017-12-31T11:26:08.528Z,93.74
2017-12-31T11:27:08.507Z,93.26
2017-12-31T11:28:08.488Z,93.26
2017-12-31T11:29:08.471Z,93.46
2017-12-31T11:30:08.453Z,93.74
2017-12-31T11:31:08.437Z,93.26
2017-12-31T11:32:08.422Z,93.74
2017-12-31T11:33:08.399Z,93.36
2017-12-31T11:34:08.391Z,93.36
2017-12-31T11:35:08.366Z,93.55
2017-12-31T11:36:08.349Z,93.55
2017-12-31T11:37:08.335Z,93.55
2017-12-31T11:38:08.314Z,92.50
2017-12-31T11:39:08.300Z,93.07
2017-12-31T11:40:08.329Z,92.97
2017-12-31T11:41:08.260Z,92.69
2017-12-31T11:42:08.242Z,92.21
2017-12-31T11:43:08.228Z,91.83
2017-12-31T11:44:08.217Z,92.02
2017-12-31T11:45:08.192Z,92.97
2017-12-31T11:46:08.177Z,93.26
2017-12-31T11:47:08.163Z,92.60
2017-12-31T11:48:08.140Z,92.69
2017-12-31T11:49:08.131Z,92.97
2017-12-31T11:50:08.114Z,92.88
2017-12-31T11:51:08.090Z,92.41
2017-12-31T11:52:08.070Z,92.88
2017-12-31T11:53:08.050Z,92.69
2017-12-31T11:54:08.037Z,91.55
2017-12-31T11:55:08.016Z,92.21
2017-12-31T11:56:08.000Z,92.21
2017-12-31T11:57:07.982Z,91.45
2017-12-31T11:58:07.965Z,91.40
2017-12-31T11:59:07.945Z,91.21
2017-12-31T12:00:07.929Z,91.69
2017-12-31T12:01:07.911Z,91.40
2017-12-31T12:02:07.898Z,91.59
2017-12-31T12:03:07.879Z,91.78
2017-12-31T12:04:07.863Z,91.50
2017-12-31T12:05:07.839Z,90.64
2017-12-31T12:06:07.821Z,90.45
2017-12-31T12:07:07.804Z,90.45
2017-12-31T12:08:07.789Z,91.11
2017-12-31T12:09:07.769Z,90.64
2017-12-31T12:10:07.757Z,90.83
2017-12-31T12:11:07.734Z,90.64
2017-12-31T12:12:07.719Z,91.21
2017-12-31T12:13:07.702Z,91.11
2017-12-31T12:14:07.697Z,90.45
2017-12-31T12:15:07.671Z,90.35
2017-12-31T12:16:07.648Z,90.83
2017-12-31T12:17:07.630Z,90.54
2017-12-31T12:18:07.617Z,90.64
2017-12-31T12:19:07.602Z,90.73
2017-12-31T12:20:07.577Z,91.30
2017-12-31T12:21:07.570Z,90.64
2017-12-31T12:22:07.548Z,90.83
2017-12-31T12:23:07.531Z,90.54
2017-12-31T12:24:07.507Z,91.21
2017-12-31T12:25:07.492Z,90.83
2017-12-31T12:26:07.474Z,90.64
2017-12-31T12:27:07.456Z,90.16
2017-12-31T12:28:07.439Z,89.59
2017-12-31T12:29:07.440Z,89.20
2017-12-31T12:30:07.410Z,89.11
2017-12-31T12:31:07.387Z,88.82
2017-12-31T12:32:07.370Z,88.73
2017-12-31T12:33:07.353Z,88.63
2017-12-31T12:34:07.338Z,88.73
2017-12-31T12:35:07.318Z,88.34
2017-12-31T12:36:07.308Z,88.92
2017-12-31T12:37:07.283Z,88.63
2017-12-31T12:38:07.270Z,88.63
2017-12-31T12:39:07.258Z,88.73
2017-12-31T12:40:07.230Z,88.54
2017-12-31T12:41:07.211Z,87.87
2017-12-31T12:42:07.195Z,88.34
2017-12-31T12:43:07.180Z,88.44
2017-12-31T12:44:07.165Z,88.25
2017-12-31T12:45:07.149Z,88.73
2017-12-31T12:46:07.133Z,87.01
2017-12-31T12:47:07.113Z,87.10
2017-12-31T12:48:07.093Z,88.06
2017-12-31T12:49:07.082Z,87.96
2017-12-31T12:50:07.059Z,87.68
2017-12-31T12:51:07.063Z,88.06
2017-12-31T12:52:07.034Z,87.29